createdAt,value
2019-01-08T00:01:14.617Z,48.05
2019-01-08T00:03:49.380Z,46.48
2019-01-08T00:06:20.682Z,47.08
2019-01-08T00:08:51.868Z,47.33
2019-01-08T00:11:23.063Z,48.10
2019-01-08T00:13:54.351Z,43.80
2019-01-08T00:16:26.039Z,44.00
2019-01-08T00:18:58.397Z,44.50
2019-01-08T00:21:29.911Z,45.80
2019-01-08T00:24:00.927Z,47.05
2019-01-08T00:26:32.274Z,45.90
2019-01-08T00:29:04.622Z,48.40
2019-01-08T00:31:35.783Z,45.40
2019-01-08T00:34:07.514Z,45.80
2019-01-08T00:36:38.998Z,44.60
2019-01-08T00:39:10.206Z,47.13
2019-01-08T00:41:41.366Z,44.77
2019-01-08T00:44:12.458Z,44.67
2019-01-08T00:46:43.672Z,43.77
2019-01-08T00:49:14.790Z,45.27
2019-01-08T00:51:46.155Z,44.97
2019-01-08T00:54:17.147Z,46.17
2019-01-08T00:56:48.193Z,46.50
2019-01-08T00:59:19.313Z,46.48
2019-01-08T01:01:50.799Z,46.50
2019-01-08T01:04:22.358Z,47.83
2019-01-08T01:06:53.696Z,48.37
2019-01-08T01:09:24.956Z,48.53
2019-01-08T01:11:56.216Z,47.17
2019-01-08T01:14:27.973Z,48.20
2019-01-08T01:16:59.431Z,49.67
2019-01-08T01:19:33.151Z,47.70
2019-01-08T01:22:05.702Z,47.33
2019-01-08T01:24:38.490Z,45.93
2019-01-08T01:27:09.722Z,46.53
2019-01-08T01:29:43.119Z,47.23
2019-01-08T01:32:14.288Z,45.83
2019-01-08T01:34:45.785Z,44.20
2019-01-08T01:37:16.971Z,46.42
2019-01-08T01:39:48.149Z,45.90
2019-01-08T01:42:21.173Z,44.30
2019-01-08T01:44:54.160Z,45.73
2019-01-08T01:47:25.242Z,46.00
2019-01-08T01:49:56.452Z,45.07
2019-01-08T01:52:27.553Z,45.23
2019-01-08T01:54:58.790Z,44.70
2019-01-08T01:57:30.607Z,44.53
2019-01-08T02:00:01.747Z,44.53
2019-01-08T02:02:33.519Z,43.97
2019-01-08T02:05:04.846Z,44.67
2019-01-08T02:07:36.488Z,43.03
2019-01-08T02:10:08.246Z,43.73
2019-01-08T02:12:39.764Z,44.40
2019-01-08T02:15:10.773Z,43.48
2019-01-08T02:17:43.433Z,45.73
2019-01-08T02:20:14.685Z,43.38
2019-01-08T02:22:45.810Z,45.93
2019-01-08T02:25:17.058Z,48.50
2019-01-08T02:27:48.612Z,53.17
2019-01-08T02:30:19.928Z,54.17
2019-01-08T02:32:52.143Z,55.10
2019-01-08T02:35:23.559Z,55.17
2019-01-08T02:37:55.257Z,57.07
2019-01-08T02:40:27.621Z,52.77
2019-01-08T02:42:58.992Z,55.70
2019-01-08T02:45:31.587Z,54.77
2019-01-08T02:48:03.248Z,62.57
2019-01-08T02:50:34.682Z,59.17
2019-01-08T02:53:05.861Z,69.27
2019-01-08T02:55:37.031Z,80.63
2019-01-08T02:58:08.244Z,74.83
2019-01-08T03:00:39.516Z,76.47
2019-01-08T03:03:10.950Z,72.73
2019-01-08T03:05:42.774Z,74.27
2019-01-08T03:08:15.800Z,67.30
2019-01-08T03:10:47.356Z,66.43
2019-01-08T03:13:18.699Z,63.03
2019-01-08T03:15:50.143Z,65.17
2019-01-08T03:18:22.931Z,65.20
2019-01-08T03:20:54.344Z,68.97
2019-01-08T03:23:25.701Z,64.90
2019-01-08T03:25:57.387Z,66.02
2019-01-08T03:28:28.733Z,67.53
2019-01-08T03:30:59.900Z,71.30
2019-01-08T03:33:33.381Z,71.63
2019-01-08T03:36:04.899Z,70.03
2019-01-08T03:38:36.087Z,64.27
2019-01-08T03:41:07.352Z,65.00
2019-01-08T03:43:38.870Z,70.33
2019-01-08T03:46:11.219Z,66.35
2019-01-08T03:48:42.400Z,70.87
2019-01-08T03:51:13.602Z,70.90
2019-01-08T03:53:45.188Z,63.78
2019-01-08T03:56:16.675Z,64.10
2019-01-08T03:58:48.875Z,63.17
2019-01-08T04:01:20.246Z,59.65
2019-01-08T04:03:52.453Z,64.47
2019-01-08T04:06:24.038Z,62.08
2019-01-08T04:08:57.750Z,63.50
2019-01-08T04:11:29.321Z,59.47
2019-01-08T04:14:00.667Z,60.43
2019-01-08T04:16:31.909Z,59.87
2019-01-08T04:19:03.086Z,68.13
2019-01-08T04:21:34.552Z,63.83
2019-01-08T04:24:07.934Z,70.53
2019-01-08T04:26:39.625Z,63.73
2019-01-08T04:29:10.766Z,65.72
2019-01-08T04:31:41.925Z,60.87
2019-01-08T04:34:13.649Z,62.00
2019-01-08T04:36:44.910Z,65.90
2019-01-08T04:39:16.583Z,65.37
2019-01-08T04:41:48.056Z,67.17
2019-01-08T04:44:20.012Z,67.70
2019-01-08T04:46:52.616Z,66.90
2019-01-08T04:49:24.190Z,70.63
2019-01-08T04:51:55.392Z,69.93
2019-01-08T04:54:27.045Z,71.40
2019-01-08T04:56:58.269Z,85.70
2019-01-08T04:59:30.852Z,84.67
2019-01-08T05:02:02.089Z,82.37
2019-01-08T05:04:33.500Z,74.20
2019-01-08T05:07:04.952Z,71.33
2019-01-08T05:09:36.355Z,73.93
2019-01-08T05:12:07.649Z,67.40
2019-01-08T05:14:41.329Z,66.77
2019-01-08T05:17:12.809Z,67.95
2019-01-08T05:19:45.136Z,66.73
2019-01-08T05:22:18.131Z,71.55
2019-01-08T05:24:49.572Z,72.40
2019-01-08T05:27:20.876Z,71.40
2019-01-08T05:29:52.196Z,75.57
2019-01-08T05:32:24.191Z,72.13
2019-01-08T05:34:55.702Z,69.37
2019-01-08T05:37:27.525Z,68.67
2019-01-08T05:39:59.087Z,68.90
2019-01-08T05:42:30.224Z,70.33
2019-01-08T05:45:01.453Z,63.37
2019-01-08T05:47:32.654Z,68.97
2019-01-08T05:50:04.018Z,64.58
2019-01-08T05:52:35.403Z,63.13
2019-01-08T05:55:06.700Z,64.37
2019-01-08T05:57:38.052Z,68.97
2019-01-08T06:00:16.396Z,64.50
2019-01-08T06:02:42.354Z,69.77
2019-01-08T06:05:13.570Z,63.37
2019-01-08T06:07:44.902Z,64.37
2019-01-08T06:10:16.722Z,64.87
2019-01-08T06:12:47.957Z,63.53
2019-01-08T06:15:20.094Z,67.13
2019-01-08T06:17:51.631Z,62.33
2019-01-08T06:20:22.799Z,58.55
2019-01-08T06:22:53.863Z,57.67
2019-01-08T06:25:25.409Z,54.60
2019-01-08T06:27:56.506Z,58.57
2019-01-08T06:30:27.905Z,58.27
2019-01-08T06:33:00.418Z,58.73
2019-01-08T06:35:33.767Z,56.23
2019-01-08T06:38:05.899Z,55.00
2019-01-08T06:40:37.031Z,52.93
2019-01-08T06:43:08.187Z,50.97
2019-01-08T06:45:39.316Z,49.60
2019-01-08T06:48:12.940Z,52.03
2019-01-08T06:50:44.690Z,55.88
2019-01-08T06:53:15.865Z,52.03
2019-01-08T06:55:47.241Z,50.52
2019-01-08T06:58:18.663Z,52.77
2019-01-08T07:00:50.037Z,50.60
2019-01-08T07:03:21.277Z,53.67
2019-01-08T07:05:52.774Z,49.60
2019-01-08T07:08:24.108Z,49.88
2019-01-08T07:10:55.424Z,49.97
2019-01-08T07:13:26.686Z,47.87
2019-01-08T07:15:59.176Z,50.13
2019-01-08T07:18:30.434Z,47.77
2019-01-08T07:21:01.699Z,48.50
2019-01-08T07:23:33.186Z,46.97
2019-01-08T07:26:04.421Z,48.53
2019-01-08T07:28:35.668Z,46.60
2019-01-08T07:31:06.834Z,47.43
2019-01-08T07:33:38.309Z,51.93
2019-01-08T07:36:09.428Z,55.07
2019-01-08T07:38:40.635Z,67.37
2019-01-08T07:41:11.787Z,54.77
2019-01-08T07:43:43.612Z,55.30
2019-01-08T07:46:14.980Z,56.50
2019-01-08T07:48:46.570Z,46.70
2019-01-08T07:51:17.972Z,46.23
2019-01-08T07:53:49.818Z,72.17
2019-01-08T07:56:21.047Z,72.23
2019-01-08T07:58:52.093Z,63.87
2019-01-08T08:01:23.213Z,54.30
2019-01-08T08:03:54.431Z,67.17
2019-01-08T08:06:25.604Z,62.60
2019-01-08T08:08:56.877Z,53.00
2019-01-08T08:11:29.053Z,65.23
2019-01-08T08:14:00.478Z,63.20
2019-01-08T08:16:33.844Z,58.77
2019-01-08T08:19:05.209Z,64.30
2019-01-08T08:21:37.823Z,74.10
2019-01-08T08:24:08.997Z,80.40
2019-01-08T08:26:40.134Z,85.80
2019-01-08T08:29:11.305Z,81.13
2019-01-08T08:31:42.535Z,80.53
2019-01-08T08:34:13.692Z,68.17
2019-01-08T08:36:46.489Z,76.60
2019-01-08T08:39:17.553Z,68.57
2019-01-08T08:41:51.455Z,82.78
2019-01-08T08:44:22.482Z,76.92
2019-01-08T08:46:53.779Z,83.57
2019-01-08T08:49:26.134Z,79.40
2019-01-08T08:51:57.388Z,77.73
2019-01-08T08:54:28.585Z,81.40
2019-01-08T08:56:59.996Z,75.93
2019-01-08T08:59:32.255Z,46.20
2019-01-08T09:02:03.944Z,46.17
2019-01-08T09:04:35.239Z,44.50
2019-01-08T09:07:06.384Z,47.93
2019-01-08T09:09:38.038Z,48.90
2019-01-08T09:12:09.309Z,42.83
2019-01-08T09:14:42.130Z,41.67
2019-01-08T09:17:14.339Z,42.38
2019-01-08T09:19:45.455Z,42.00
2019-01-08T09:22:18.551Z,42.87
2019-01-08T09:24:49.910Z,50.23
2019-01-08T09:27:21.182Z,47.40
2019-01-08T09:29:52.534Z,39.83
2019-01-08T09:32:24.149Z,42.08
2019-01-08T09:34:55.274Z,37.57
2019-01-08T09:37:26.351Z,36.17
2019-01-08T09:39:59.051Z,37.60
2019-01-08T09:42:30.308Z,35.33
2019-01-08T09:45:01.373Z,33.70
2019-01-08T09:47:32.522Z,34.17
2019-01-08T09:50:03.980Z,32.37
2019-01-08T09:52:35.421Z,32.17
2019-01-08T09:55:08.085Z,30.20
2019-01-08T09:57:40.386Z,30.90
2019-01-08T10:00:11.593Z,30.37
2019-01-08T10:02:42.922Z,28.77
2019-01-08T10:05:14.057Z,26.77
2019-01-08T10:07:45.786Z,22.50
2019-01-08T10:10:18.487Z,21.62
2019-01-08T10:12:49.698Z,19.50
2019-01-08T10:15:20.867Z,17.50
2019-01-08T10:17:52.601Z,16.57
2019-01-08T10:20:23.665Z,15.50
2019-01-08T10:22:55.195Z,12.33
2019-01-08T10:25:26.294Z,11.27
2019-01-08T10:27:57.642Z,11.57
2019-01-08T10:30:28.805Z,10.97
2019-01-08T10:33:00.041Z,11.48
2019-01-08T10:35:31.279Z,11.17
2019-01-08T10:38:03.917Z,10.13
2019-01-08T10:40:35.579Z,10.98
2019-01-08T10:43:06.965Z,11.23
2019-01-08T10:45:38.851Z,10.83
2019-01-08T10:48:10.614Z,10.82
2019-01-08T10:50:43.357Z,10.55
2019-01-08T10:53:14.868Z,10.67
2019-01-08T10:55:45.921Z,10.73
2019-01-08T10:58:17.471Z,10.55
2019-01-08T11:00:48.769Z,10.00
2019-01-08T11:03:20.093Z,10.03
2019-01-08T11:05:52.961Z,10.17
2019-01-08T11:08:24.498Z,10.87
2019-01-08T11:10:56.056Z,10.10
2019-01-08T11:13:27.685Z,9.73
2019-01-08T11:15:59.308Z,9.90
2019-01-08T11:18:30.970Z,10.23
2019-01-08T11:21:02.105Z,9.37
2019-01-08T11:23:33.511Z,10.53
2019-01-08T11:26:05.674Z,10.63
2019-01-08T11:28:38.066Z,10.10
2019-01-08T11:31:09.326Z,10.57
2019-01-08T11:33:40.730Z,10.60
2019-01-08T11:36:13.388Z,10.80
2019-01-08T11:38:44.520Z,11.40
2019-01-08T11:41:15.787Z,11.13
2019-01-08T11:43:47.240Z,10.83
2019-01-08T11:46:18.578Z,10.18
2019-01-08T11:48:51.698Z,10.90
2019-01-08T11:51:22.936Z,10.93
2019-01-08T11:53:54.033Z,10.13
2019-01-08T11:56:25.075Z,10.13
2019-01-08T11:58:56.403Z,9.80
2019-01-08T12:01:27.599Z,10.93
2019-01-08T12:03:59.357Z,10.50
2019-01-08T12:06:30.396Z,10.73
2019-01-08T12:09:01.743Z,9.70
2019-01-08T12:11:34.430Z,10.88
2019-01-08T12:14:06.236Z,11.50
2019-01-08T12:16:37.521Z,10.73
2019-01-08T12:19:09.457Z,11.27
2019-01-08T12:21:40.935Z,12.03
2019-01-08T12:24:12.111Z,11.75
2019-01-08T12:26:43.437Z,11.17
2019-01-08T12:29:15.236Z,11.77
2019-01-08T12:31:46.768Z,11.10
2019-01-08T12:34:17.990Z,11.57
2019-01-08T12:36:49.296Z,11.63
2019-01-08T12:39:20.527Z,12.03
2019-01-08T12:41:51.812Z,12.60
2019-01-08T12:44:24.595Z,12.20
2019-01-08T12:46:57.478Z,12.37
2019-01-08T12:49:28.694Z,12.83
2019-01-08T12:52:01.906Z,12.37
2019-01-08T12:54:33.368Z,13.37
2019-01-08T12:57:05.110Z,13.43
2019-01-08T12:59:36.554Z,13.03
2019-01-08T13:02:14.630Z,13.18
2019-01-08T13:04:40.790Z,13.17
2019-01-08T13:07:12.003Z,13.73
2019-01-08T13:09:43.098Z,14.63
2019-01-08T13:12:14.862Z,13.40
2019-01-08T13:14:46.362Z,13.20
2019-01-08T13:17:17.695Z,12.70
2019-01-08T13:19:48.960Z,13.03
2019-01-08T13:22:19.998Z,13.60
2019-01-08T13:24:51.215Z,12.73
2019-01-08T13:27:22.228Z,11.90
2019-01-08T13:29:54.778Z,12.20
2019-01-08T13:32:26.124Z,12.13
2019-01-08T13:34:59.697Z,12.17
2019-01-08T13:37:30.734Z,12.83
2019-01-08T13:40:01.830Z,12.30
2019-01-08T13:42:33.457Z,12.40
2019-01-08T13:45:06.997Z,12.05
2019-01-08T13:47:38.030Z,12.60
2019-01-08T13:50:10.169Z,13.13
2019-01-08T13:52:41.734Z,12.57
2019-01-08T13:55:13.119Z,12.57
2019-01-08T13:57:44.479Z,12.93
2019-01-08T14:00:16.715Z,11.37
2019-01-08T14:02:48.021Z,12.30
2019-01-08T14:05:19.504Z,12.25
2019-01-08T14:07:50.836Z,13.43
2019-01-08T14:10:22.003Z,13.43
2019-01-08T14:12:53.258Z,12.37
2019-01-08T14:15:24.397Z,12.67
2019-01-08T14:17:56.403Z,13.13
2019-01-08T14:20:29.197Z,12.70
2019-01-08T14:23:00.407Z,12.73
2019-01-08T14:25:32.091Z,12.47
2019-01-08T14:28:04.870Z,12.73
2019-01-08T14:30:36.228Z,12.83
2019-01-08T14:33:07.623Z,12.50
2019-01-08T14:35:38.965Z,13.43
2019-01-08T14:38:10.169Z,13.03
2019-01-08T14:40:41.722Z,12.93
2019-01-08T14:43:14.352Z,13.68
2019-01-08T14:45:47.148Z,13.63
2019-01-08T14:48:20.660Z,13.97
2019-01-08T14:50:53.545Z,13.50
2019-01-08T14:53:25.901Z,14.03
2019-01-08T14:55:57.912Z,14.20
2019-01-08T14:58:30.297Z,14.60
2019-01-08T15:01:01.664Z,14.60
2019-01-08T15:03:33.269Z,15.43
2019-01-08T15:06:05.445Z,15.37
2019-01-08T15:08:36.687Z,15.13
2019-01-08T15:11:07.866Z,14.33
2019-01-08T15:13:40.057Z,14.67
2019-01-08T15:16:11.353Z,15.60
2019-01-08T15:18:42.469Z,15.47
2019-01-08T15:21:14.061Z,15.23
2019-01-08T15:23:45.671Z,15.43
2019-01-08T15:26:16.724Z,15.40
2019-01-08T15:28:47.929Z,14.93
2019-01-08T15:31:19.064Z,15.13
2019-01-08T15:33:50.247Z,14.63
2019-01-08T15:36:23.103Z,15.00
2019-01-08T15:38:54.363Z,14.57
2019-01-08T15:41:26.685Z,14.27
2019-01-08T15:43:57.762Z,14.67
2019-01-08T15:46:29.638Z,14.40
2019-01-08T15:49:01.491Z,14.80
2019-01-08T15:51:32.831Z,14.77
2019-01-08T15:54:03.972Z,14.63
2019-01-08T15:56:35.121Z,14.90
2019-01-08T15:59:06.197Z,15.27
2019-01-08T16:01:38.888Z,15.40
2019-01-08T16:04:10.065Z,15.53
2019-01-08T16:06:41.218Z,14.07
2019-01-08T16:09:12.595Z,15.20
2019-01-08T16:11:43.826Z,13.78
2019-01-08T16:14:15.177Z,14.15
2019-01-08T16:16:46.565Z,14.70
2019-01-08T16:19:18.601Z,16.02
2019-01-08T16:21:49.693Z,15.30
2019-01-08T16:24:20.858Z,16.27
2019-01-08T16:26:51.992Z,15.30
2019-01-08T16:29:23.274Z,16.62
2019-01-08T16:31:54.844Z,16.60
2019-01-08T16:34:27.135Z,16.77
2019-01-08T16:36:58.253Z,16.87
2019-01-08T16:39:29.367Z,17.37
2019-01-08T16:42:00.437Z,16.97
2019-01-08T16:44:32.104Z,17.63
2019-01-08T16:47:03.489Z,18.43
2019-01-08T16:49:35.656Z,17.67
2019-01-08T16:52:07.171Z,18.03
2019-01-08T16:54:39.117Z,17.30
2019-01-08T16:57:10.341Z,18.67
2019-01-08T16:59:41.507Z,18.57
2019-01-08T17:02:12.693Z,18.70
2019-01-08T17:04:44.055Z,18.77
2019-01-08T17:07:15.322Z,18.35
2019-01-08T17:09:46.471Z,19.77
2019-01-08T17:12:17.785Z,19.20
2019-01-08T17:14:49.399Z,18.93
2019-01-08T17:17:20.975Z,18.30
2019-01-08T17:19:52.191Z,20.15
2019-01-08T17:22:24.249Z,19.00
2019-01-08T17:24:55.514Z,19.57
2019-01-08T17:27:26.539Z,18.70
2019-01-08T17:29:58.142Z,19.07
2019-01-08T17:32:29.394Z,19.33
2019-01-08T17:35:00.670Z,19.67
2019-01-08T17:37:31.867Z,19.87
2019-01-08T17:40:04.559Z,20.20
2019-01-08T17:42:36.001Z,20.25
2019-01-08T17:45:08.936Z,19.33
2019-01-08T17:47:40.055Z,19.63
2019-01-08T17:50:12.698Z,20.48
2019-01-08T17:52:45.846Z,20.70
2019-01-08T17:55:17.451Z,21.20
2019-01-08T17:57:48.771Z,19.90
2019-01-08T18:00:20.111Z,20.80
2019-01-08T18:02:54.541Z,19.33
2019-01-08T18:05:25.872Z,19.43
2019-01-08T18:07:57.413Z,18.87
2019-01-08T18:10:28.721Z,19.23
2019-01-08T18:12:59.979Z,18.13
2019-01-08T18:15:32.502Z,19.33
2019-01-08T18:18:03.637Z,16.67
2019-01-08T18:20:35.709Z,17.70
2019-01-08T18:23:07.608Z,16.27
2019-01-08T18:25:38.606Z,16.15
2019-01-08T18:28:09.904Z,15.43
2019-01-08T18:30:41.036Z,15.70
2019-01-08T18:33:12.542Z,15.13
2019-01-08T18:35:44.203Z,15.93
2019-01-08T18:38:15.530Z,14.50
2019-01-08T18:40:46.789Z,15.10
2019-01-08T18:43:18.423Z,14.43
2019-01-08T18:45:50.196Z,14.65
2019-01-08T18:48:21.708Z,15.38
2019-01-08T18:50:52.980Z,14.93
2019-01-08T18:53:24.279Z,15.90
2019-01-08T18:55:55.307Z,14.77
2019-01-08T18:58:26.553Z,15.00
2019-01-08T19:00:57.633Z,14.93
2019-01-08T19:03:28.672Z,15.90
2019-01-08T19:05:59.779Z,16.87
2019-01-08T19:09:14.370Z,16.20
2019-01-08T19:11:45.864Z,16.50
2019-01-08T19:14:18.230Z,16.90
2019-01-08T19:16:49.325Z,16.90
2019-01-08T19:19:22.016Z,17.00
2019-01-08T19:21:53.113Z,16.00
2019-01-08T19:24:24.574Z,15.90
2019-01-08T19:26:55.987Z,17.23
2019-01-08T19:29:27.143Z,17.40
2019-01-08T19:31:58.765Z,17.00
2019-01-08T19:34:29.933Z,18.20
2019-01-08T19:37:02.113Z,17.67
2019-01-08T19:39:33.473Z,16.43
2019-01-08T19:42:04.590Z,18.00
2019-01-08T19:44:36.005Z,18.03
2019-01-08T19:47:08.300Z,17.67
2019-01-08T19:49:40.036Z,18.17
2019-01-08T19:52:11.226Z,17.77
2019-01-08T19:54:42.759Z,18.87
2019-01-08T19:57:14.458Z,17.37
2019-01-08T19:59:47.777Z,17.63
2019-01-08T20:02:18.891Z,17.75
2019-01-08T20:04:50.116Z,17.03
2019-01-08T20:07:21.234Z,18.12
2019-01-08T20:09:52.702Z,18.73
2019-01-08T20:12:23.882Z,18.45
2019-01-08T20:14:55.217Z,19.20
2019-01-08T20:17:26.726Z,18.10
2019-01-08T20:19:58.179Z,19.07
2019-01-08T20:22:29.310Z,18.70
2019-01-08T20:25:00.522Z,17.10
2019-01-08T20:27:32.647Z,17.27
2019-01-08T20:30:04.381Z,16.23
2019-01-08T20:32:35.752Z,16.77
2019-01-08T20:35:07.032Z,16.50
2019-01-08T20:37:38.070Z,16.63
2019-01-08T20:40:10.117Z,16.60
2019-01-08T20:42:41.553Z,16.53
2019-01-08T20:45:15.090Z,15.87
2019-01-08T20:47:46.499Z,16.67
2019-01-08T20:50:17.892Z,16.65
2019-01-08T20:52:49.224Z,17.00
2019-01-08T20:55:20.466Z,15.03
2019-01-08T20:57:55.440Z,15.58
2019-01-08T21:00:26.975Z,16.10
2019-01-08T21:02:57.978Z,15.97
2019-01-08T21:05:29.568Z,16.70
2019-01-08T21:08:01.011Z,16.40
2019-01-08T21:10:32.340Z,16.47
2019-01-08T21:13:03.493Z,16.07
2019-01-08T21:15:36.778Z,16.43
2019-01-08T21:18:07.778Z,17.47
2019-01-08T21:20:39.320Z,16.73
2019-01-08T21:23:10.686Z,16.65
2019-01-08T21:25:42.337Z,18.00
2019-01-08T21:28:13.340Z,18.77
2019-01-08T21:30:44.461Z,17.97
2019-01-08T21:33:15.946Z,16.95
2019-01-08T21:35:47.498Z,17.83
2019-01-08T21:38:18.742Z,18.07
2019-01-08T21:40:50.075Z,16.63
2019-01-08T21:43:21.324Z,16.52
2019-01-08T21:45:52.318Z,16.77
2019-01-08T21:48:23.877Z,16.03
2019-01-08T21:50:55.977Z,15.95
2019-01-08T21:53:28.508Z,17.07
2019-01-08T21:56:00.953Z,15.83
2019-01-08T21:58:32.678Z,15.30
2019-01-08T22:01:03.961Z,16.30
2019-01-08T22:03:35.703Z,15.43
2019-01-08T22:06:06.767Z,16.07
2019-01-08T22:08:38.289Z,15.40
2019-01-08T22:11:09.492Z,15.40
2019-01-08T22:13:41.977Z,15.80
2019-01-08T22:16:13.357Z,14.75
2019-01-08T22:18:44.528Z,15.23
2019-01-08T22:21:15.851Z,14.07
2019-01-08T22:23:47.011Z,14.90
2019-01-08T22:26:18.689Z,15.45
2019-01-08T22:28:49.696Z,13.53
2019-01-08T22:31:21.278Z,14.45
2019-01-08T22:33:53.634Z,14.60
2019-01-08T22:36:24.963Z,15.33
2019-01-08T22:38:57.040Z,14.80
2019-01-08T22:41:28.375Z,15.30
2019-01-08T22:43:59.442Z,14.93
2019-01-08T22:46:30.849Z,16.20
2019-01-08T22:49:02.464Z,15.57
2019-01-08T22:51:34.144Z,15.13
2019-01-08T22:54:05.566Z,15.43
2019-01-08T22:56:37.308Z,16.07
2019-01-08T22:59:08.472Z,14.93
2019-01-08T23:01:42.035Z,16.13
2019-01-08T23:04:13.767Z,15.93
2019-01-08T23:06:46.683Z,16.87
2019-01-08T23:09:18.129Z,16.57
2019-01-08T23:11:49.530Z,17.07
2019-01-08T23:14:20.684Z,17.10
2019-01-08T23:16:52.270Z,17.43
2019-01-08T23:19:23.409Z,18.40
2019-01-08T23:21:55.580Z,17.50
2019-01-08T23:24:26.916Z,18.40
2019-01-08T23:26:58.662Z,17.60
2019-01-08T23:29:29.751Z,17.47
2019-01-08T23:32:00.950Z,19.13
2019-01-08T23:34:33.446Z,17.80
2019-01-08T23:37:04.783Z,18.03
2019-01-08T23:39:38.266Z,17.63
2019-01-08T23:42:09.471Z,17.67
2019-01-08T23:44:40.449Z,16.37
2019-01-08T23:47:11.639Z,17.77
2019-01-08T23:49:44.509Z,16.37
2019-01-08T23:52:25.627Z,16.85
2019-01-08T23:54:58.183Z,16.67
2019-01-08T23:57:33.090Z,16.90
